sensor_id;sensor_type;location;lat;lon;timestamp;temperature;humidity
324;DHT22;149;51.094;17.002;2023-08-08T00:00:47;14.20;92.80
324;DHT22;149;51.094;17.002;2023-08-08T00:03:15;14.30;92.70
324;DHT22;149;51.094;17.002;2023-08-08T00:05:42;14.30;92.40
324;DHT22;149;51.094;17.002;2023-08-08T00:08:09;14.30;92.40
324;DHT22;149;51.094;17.002;2023-08-08T00:10:36;14.30;92.90
324;DHT22;149;51.094;17.002;2023-08-08T00:13:03;14.30;92.80
324;DHT22;149;51.094;17.002;2023-08-08T00:15:31;14.30;92.60
324;DHT22;149;51.094;17.002;2023-08-08T00:17:57;14.30;92.60
324;DHT22;149;51.094;17.002;2023-08-08T00:20:24;14.30;92.70
324;DHT22;149;51.094;17.002;2023-08-08T00:22:52;14.40;92.50
324;DHT22;149;51.094;17.002;2023-08-08T00:25:19;14.40;92.40
324;DHT22;149;51.094;17.002;2023-08-08T00:27:46;14.40;92.20
324;DHT22;149;51.094;17.002;2023-08-08T00:30:13;14.40;92.20
324;DHT22;149;51.094;17.002;2023-08-08T00:32:40;14.20;92.60
324;DHT22;149;51.094;17.002;2023-08-08T00:35:07;14.30;92.30
324;DHT22;149;51.094;17.002;2023-08-08T00:37:35;14.30;92.10
324;DHT22;149;51.094;17.002;2023-08-08T00:40:01;14.30;92.00
324;DHT22;149;51.094;17.002;2023-08-08T00:42:29;14.30;92.30
324;DHT22;149;51.094;17.002;2023-08-08T00:44:56;14.10;92.20
324;DHT22;149;51.094;17.002;2023-08-08T00:47:28;14.40;92.10
324;DHT22;149;51.094;17.002;2023-08-08T00:49:56;14.30;91.90
324;DHT22;149;51.094;17.002;2023-08-08T00:52:23;14.20;92.00
324;DHT22;149;51.094;17.002;2023-08-08T00:54:52;14.30;91.70
324;DHT22;149;51.094;17.002;2023-08-08T00:57:20;14.20;92.10
324;DHT22;149;51.094;17.002;2023-08-08T00:59:47;14.30;92.00
324;DHT22;149;51.094;17.002;2023-08-08T01:02:15;14.30;91.60
324;DHT22;149;51.094;17.002;2023-08-08T01:04:42;14.20;92.10
324;DHT22;149;51.094;17.002;2023-08-08T01:07:32;14.10;91.90
324;DHT22;149;51.094;17.002;2023-08-08T01:10:08;14.00;92.50
324;DHT22;149;51.094;17.002;2023-08-08T01:12:40;13.80;92.80
324;DHT22;149;51.094;17.002;2023-08-08T01:15:09;13.70;93.20
324;DHT22;149;51.094;17.002;2023-08-08T01:17:37;13.60;93.20
324;DHT22;149;51.094;17.002;2023-08-08T01:20:06;13.50;93.60
324;DHT22;149;51.094;17.002;2023-08-08T01:22:43;13.50;93.30
324;DHT22;149;51.094;17.002;2023-08-08T01:25:12;13.50;93.50
324;DHT22;149;51.094;17.002;2023-08-08T01:27:39;13.40;93.60
324;DHT22;149;51.094;17.002;2023-08-08T01:30:07;13.30;93.90
324;DHT22;149;51.094;17.002;2023-08-08T01:32:34;13.20;94.30
324;DHT22;149;51.094;17.002;2023-08-08T01:35:01;13.20;94.40
324;DHT22;149;51.094;17.002;2023-08-08T01:37:33;13.20;94.20
324;DHT22;149;51.094;17.002;2023-08-08T01:40:03;13.10;94.40
324;DHT22;149;51.094;17.002;2023-08-08T01:42:32;13.00;95.20
324;DHT22;149;51.094;17.002;2023-08-08T01:44:59;12.90;94.70
324;DHT22;149;51.094;17.002;2023-08-08T01:47:26;12.90;94.90
324;DHT22;149;51.094;17.002;2023-08-08T01:49:53;12.90;95.00
324;DHT22;149;51.094;17.002;2023-08-08T01:52:20;12.90;95.00
324;DHT22;149;51.094;17.002;2023-08-08T01:54:49;12.80;95.00
324;DHT22;149;51.094;17.002;2023-08-08T01:57:16;12.70;95.30
324;DHT22;149;51.094;17.002;2023-08-08T01:59:45;12.70;95.70
324;DHT22;149;51.094;17.002;2023-08-08T02:02:12;12.60;96.00
324;DHT22;149;51.094;17.002;2023-08-08T02:04:39;12.60;96.00
324;DHT22;149;51.094;17.002;2023-08-08T02:07:06;12.60;96.00
324;DHT22;149;51.094;17.002;2023-08-08T02:09:34;12.40;95.80
324;DHT22;149;51.094;17.002;2023-08-08T02:12:01;12.60;95.90
324;DHT22;149;51.094;17.002;2023-08-08T02:14:28;12.50;95.70
324;DHT22;149;51.094;17.002;2023-08-08T02:16:55;12.60;95.80
324;DHT22;149;51.094;17.002;2023-08-08T02:19:22;12.60;96.00
324;DHT22;149;51.094;17.002;2023-08-08T02:21:50;12.50;96.20
324;DHT22;149;51.094;17.002;2023-08-08T02:24:17;12.50;95.70
324;DHT22;149;51.094;17.002;2023-08-08T02:26:44;12.50;95.50
324;DHT22;149;51.094;17.002;2023-08-08T02:29:11;12.50;95.60
324;DHT22;149;51.094;17.002;2023-08-08T02:31:38;12.40;95.90
324;DHT22;149;51.094;17.002;2023-08-08T02:34:05;12.50;96.30
324;DHT22;149;51.094;17.002;2023-08-08T02:36:32;12.30;96.10
324;DHT22;149;51.094;17.002;2023-08-08T02:39:00;12.30;96.20
324;DHT22;149;51.094;17.002;2023-08-08T02:41:27;12.30;96.20
324;DHT22;149;51.094;17.002;2023-08-08T02:43:54;12.30;96.30
324;DHT22;149;51.094;17.002;2023-08-08T02:46:21;12.30;96.30
324;DHT22;149;51.094;17.002;2023-08-08T02:48:48;12.10;96.20
324;DHT22;149;51.094;17.002;2023-08-08T02:51:15;12.30;96.00
324;DHT22;149;51.094;17.002;2023-08-08T02:53:42;12.10;96.40
324;DHT22;149;51.094;17.002;2023-08-08T02:56:09;12.20;96.20
324;DHT22;149;51.094;17.002;2023-08-08T02:58:36;12.30;96.60
324;DHT22;149;51.094;17.002;2023-08-08T03:01:03;12.20;96.00
324;DHT22;149;51.094;17.002;2023-08-08T03:03:30;12.20;96.10
324;DHT22;149;51.094;17.002;2023-08-08T03:05:57;12.20;96.10
324;DHT22;149;51.094;17.002;2023-08-08T03:08:24;12.10;95.90
324;DHT22;149;51.094;17.002;2023-08-08T03:10:51;12.10;96.00
324;DHT22;149;51.094;17.002;2023-08-08T03:13:18;12.00;96.00
324;DHT22;149;51.094;17.002;2023-08-08T03:15:46;12.00;96.20
324;DHT22;149;51.094;17.002;2023-08-08T03:18:13;12.00;96.10
324;DHT22;149;51.094;17.002;2023-08-08T03:20:41;12.10;96.20
324;DHT22;149;51.094;17.002;2023-08-08T03:23:07;12.10;95.70
324;DHT22;149;51.094;17.002;2023-08-08T03:25:34;12.00;95.90
324;DHT22;149;51.094;17.002;2023-08-08T03:28:01;12.10;96.10
324;DHT22;149;51.094;17.002;2023-08-08T03:30:28;12.00;95.80
324;DHT22;149;51.094;17.002;2023-08-08T03:32:55;12.00;96.10
324;DHT22;149;51.094;17.002;2023-08-08T03:35:22;11.90;96.00
324;DHT22;149;51.094;17.002;2023-08-08T03:37:49;12.00;95.80
324;DHT22;149;51.094;17.002;2023-08-08T03:40:17;11.90;96.00
324;DHT22;149;51.094;17.002;2023-08-08T03:42:44;11.90;96.00
324;DHT22;149;51.094;17.002;2023-08-08T03:45:11;11.90;96.10
324;DHT22;149;51.094;17.002;2023-08-08T03:47:38;11.80;96.10
324;DHT22;149;51.094;17.002;2023-08-08T03:50:07;11.80;96.30
324;DHT22;149;51.094;17.002;2023-08-08T03:52:33;11.80;96.40
324;DHT22;149;51.094;17.002;2023-08-08T03:55:03;12.00;96.30
324;DHT22;149;51.094;17.002;2023-08-08T03:57:31;11.90;96.40
324;DHT22;149;51.094;17.002;2023-08-08T03:59:58;11.80;96.40
324;DHT22;149;51.094;17.002;2023-08-08T04:02:25;11.90;96.50
324;DHT22;149;51.094;17.002;2023-08-08T04:04:52;12.10;96.20
324;DHT22;149;51.094;17.002;2023-08-08T04:07:19;12.00;96.20
324;DHT22;149;51.094;17.002;2023-08-08T04:09:46;12.00;95.90
324;DHT22;149;51.094;17.002;2023-08-08T04:12:13;12.00;96.10
324;DHT22;149;51.094;17.002;2023-08-08T04:14:40;12.00;96.30
324;DHT22;149;51.094;17.002;2023-08-08T04:17:07;12.20;96.20
324;DHT22;149;51.094;17.002;2023-08-08T04:19:34;12.20;95.80
324;DHT22;149;51.094;17.002;2023-08-08T04:22:02;12.40;95.30
324;DHT22;149;51.094;17.002;2023-08-08T04:24:29;12.50;95.20
324;DHT22;149;51.094;17.002;2023-08-08T04:26:56;12.60;94.80
324;DHT22;149;51.094;17.002;2023-08-08T04:29:23;12.70;94.40
324;DHT22;149;51.094;17.002;2023-08-08T04:31:50;12.90;94.00
324;DHT22;149;51.094;17.002;2023-08-08T04:34:21;13.10;93.60
324;DHT22;149;51.094;17.002;2023-08-08T04:36:48;13.40;92.70
324;DHT22;149;51.094;17.002;2023-08-08T04:39:15;13.60;92.20
324;DHT22;149;51.094;17.002;2023-08-08T04:41:42;13.70;91.80
324;DHT22;149;51.094;17.002;2023-08-08T04:44:09;14.00;91.80
324;DHT22;149;51.094;17.002;2023-08-08T04:46:36;14.00;91.10
324;DHT22;149;51.094;17.002;2023-08-08T04:49:07;14.10;91.00
324;DHT22;149;51.094;17.002;2023-08-08T04:51:34;14.30;90.60
324;DHT22;149;51.094;17.002;2023-08-08T04:54:01;14.30;90.30
324;DHT22;149;51.094;17.002;2023-08-08T04:56:29;14.20;90.50
324;DHT22;149;51.094;17.002;2023-08-08T04:58:58;14.10;91.00
324;DHT22;149;51.094;17.002;2023-08-08T05:01:28;14.10;90.70
324;DHT22;149;51.094;17.002;2023-08-08T05:04:02;14.50;90.40
324;DHT22;149;51.094;17.002;2023-08-08T05:06:35;14.50;90.00
324;DHT22;149;51.094;17.002;2023-08-08T05:09:07;14.70;88.50
324;DHT22;149;51.094;17.002;2023-08-08T05:11:36;14.80;88.50
324;DHT22;149;51.094;17.002;2023-08-08T05:14:03;14.90;87.80
324;DHT22;149;51.094;17.002;2023-08-08T05:16:30;15.00;87.90
324;DHT22;149;51.094;17.002;2023-08-08T05:18:58;15.00;87.00
324;DHT22;149;51.094;17.002;2023-08-08T05:21:25;15.00;87.20
324;DHT22;149;51.094;17.002;2023-08-08T05:23:52;15.10;86.30
324;DHT22;149;51.094;17.002;2023-08-08T05:26:22;15.20;86.20
324;DHT22;149;51.094;17.002;2023-08-08T05:28:52;15.20;86.30
324;DHT22;149;51.094;17.002;2023-08-08T05:31:19;15.20;84.40
324;DHT22;149;51.094;17.002;2023-08-08T05:33:48;15.20;84.90
324;DHT22;149;51.094;17.002;2023-08-08T05:36:15;15.40;86.50
324;DHT22;149;51.094;17.002;2023-08-08T05:38:42;15.40;85.20
324;DHT22;149;51.094;17.002;2023-08-08T05:41:09;15.30;85.90
324;DHT22;149;51.094;17.002;2023-08-08T05:43:36;15.20;87.40
324;DHT22;149;51.094;17.002;2023-08-08T05:46:03;15.20;87.20
324;DHT22;149;51.094;17.002;2023-08-08T05:48:30;15.20;86.70
324;DHT22;149;51.094;17.002;2023-08-08T05:50:58;15.50;86.30
324;DHT22;149;51.094;17.002;2023-08-08T05:53:30;15.80;83.80
324;DHT22;149;51.094;17.002;2023-08-08T05:55:57;16.40;83.50
324;DHT22;149;51.094;17.002;2023-08-08T05:58:25;16.70;81.70
324;DHT22;149;51.094;17.002;2023-08-08T06:00:52;16.90;79.20
324;DHT22;149;51.094;17.002;2023-08-08T06:03:19;17.00;78.10
324;DHT22;149;51.094;17.002;2023-08-08T06:05:46;16.90;79.30
324;DHT22;149;51.094;17.002;2023-08-08T06:08:13;16.90;78.70
324;DHT22;149;51.094;17.002;2023-08-08T06:10:42;16.90;79.00
324;DHT22;149;51.094;17.002;2023-08-08T06:13:10;17.00;78.30
324;DHT22;149;51.094;17.002;2023-08-08T06:15:37;17.00;77.90
324;DHT22;149;51.094;17.002;2023-08-08T06:18:05;17.10;79.00
324;DHT22;149;51.094;17.002;2023-08-08T06:20:34;17.40;76.80
324;DHT22;149;51.094;17.002;2023-08-08T06:23:02;17.70;76.20
324;DHT22;149;51.094;17.002;2023-08-08T06:25:31;18.10;73.00
324;DHT22;149;51.094;17.002;2023-08-08T06:27:58;18.30;72.00
324;DHT22;149;51.094;17.002;2023-08-08T06:30:25;18.40;71.60
324;DHT22;149;51.094;17.002;2023-08-08T06:32:54;18.30;70.60
324;DHT22;149;51.094;17.002;2023-08-08T06:35:26;18.30;70.10
324;DHT22;149;51.094;17.002;2023-08-08T06:37:54;18.50;68.50
324;DHT22;149;51.094;17.002;2023-08-08T06:40:20;18.40;69.20
324;DHT22;149;51.094;17.002;2023-08-08T06:42:48;18.70;68.80
324;DHT22;149;51.094;17.002;2023-08-08T06:45:15;18.70;68.50
324;DHT22;149;51.094;17.002;2023-08-08T06:47:42;18.70;67.10
324;DHT22;149;51.094;17.002;2023-08-08T06:50:09;18.90;65.10
324;DHT22;149;51.094;17.002;2023-08-08T06:52:37;18.60;67.80
324;DHT22;149;51.094;17.002;2023-08-08T06:55:04;18.70;66.20
324;DHT22;149;51.094;17.002;2023-08-08T06:57:32;19.10;66.40
324;DHT22;149;51.094;17.002;2023-08-08T06:59:59;19.50;65.00
324;DHT22;149;51.094;17.002;2023-08-08T07:02:26;20.10;62.60
324;DHT22;149;51.094;17.002;2023-08-08T07:04:53;20.50;59.50
324;DHT22;149;51.094;17.002;2023-08-08T07:07:23;20.50;57.60
324;DHT22;149;51.094;17.002;2023-08-08T07:09:51;20.60;56.70
324;DHT22;149;51.094;17.002;2023-08-08T07:12:20;20.90;57.70
324;DHT22;149;51.094;17.002;2023-08-08T07:14:47;20.80;57.50
324;DHT22;149;51.094;17.002;2023-08-08T07:17:14;20.80;56.60
324;DHT22;149;51.094;17.002;2023-08-08T07:19:41;21.10;55.40
324;DHT22;149;51.094;17.002;2023-08-08T07:22:08;20.60;54.50
324;DHT22;149;51.094;17.002;2023-08-08T07:24:35;20.10;55.00
324;DHT22;149;51.094;17.002;2023-08-08T07:27:04;20.00;57.70
324;DHT22;149;51.094;17.002;2023-08-08T07:29:31;20.40;54.80
324;DHT22;149;51.094;17.002;2023-08-08T07:31:58;20.50;55.90
324;DHT22;149;51.094;17.002;2023-08-08T07:34:25;20.50;54.10
324;DHT22;149;51.094;17.002;2023-08-08T07:36:53;20.40;54.30
324;DHT22;149;51.094;17.002;2023-08-08T07:39:21;20.30;55.60
324;DHT22;149;51.094;17.002;2023-08-08T07:41:49;20.20;55.20
324;DHT22;149;51.094;17.002;2023-08-08T07:44:18;20.20;55.20
324;DHT22;149;51.094;17.002;2023-08-08T07:46:47;20.30;54.00
324;DHT22;149;51.094;17.002;2023-08-08T07:49:14;20.40;53.70
324;DHT22;149;51.094;17.002;2023-08-08T07:51:41;20.30;53.70
324;DHT22;149;51.094;17.002;2023-08-08T07:54:08;21.60;52.20
324;DHT22;149;51.094;17.002;2023-08-08T07:56:39;23.10;49.20
324;DHT22;149;51.094;17.002;2023-08-08T07:59:05;24.30;45.50
324;DHT22;149;51.094;17.002;2023-08-08T08:01:32;24.40;43.80
324;DHT22;149;51.094;17.002;2023-08-08T08:03:59;23.40;45.30
324;DHT22;149;51.094;17.002;2023-08-08T08:06:27;22.60;48.20
324;DHT22;149;51.094;17.002;2023-08-08T08:08:54;21.70;48.40
324;DHT22;149;51.094;17.002;2023-08-08T08:11:21;22.00;50.40
324;DHT22;149;51.094;17.002;2023-08-08T08:13:50;22.60;46.30
324;DHT22;149;51.094;17.002;2023-08-08T08:16:18;22.80;45.70
324;DHT22;149;51.094;17.002;2023-08-08T08:18:45;22.80;44.30
324;DHT22;149;51.094;17.002;2023-08-08T08:21:11;23.70;44.00
324;DHT22;149;51.094;17.002;2023-08-08T08:23:40;24.50;41.30
324;DHT22;149;51.094;17.002;2023-08-08T08:26:07;24.50;42.40
324;DHT22;149;51.094;17.002;2023-08-08T08:28:34;23.60;42.90
324;DHT22;149;51.094;17.002;2023-08-08T08:31:05;23.40;44.40
324;DHT22;149;51.094;17.002;2023-08-08T08:33:32;23.10;45.80
324;DHT22;149;51.094;17.002;2023-08-08T08:36:00;22.20;47.90
324;DHT22;149;51.094;17.002;2023-08-08T08:38:26;21.70;48.30
324;DHT22;149;51.094;17.002;2023-08-08T08:40:56;21.50;49.60
324;DHT22;149;51.094;17.002;2023-08-08T08:43:23;21.40;49.60
324;DHT22;149;51.094;17.002;2023-08-08T08:45:52;20.80;49.50
324;DHT22;149;51.094;17.002;2023-08-08T08:48:21;20.60;51.20
324;DHT22;149;51.094;17.002;2023-08-08T08:50:48;20.50;51.20
324;DHT22;149;51.094;17.002;2023-08-08T08:53:16;20.50;51.60
324;DHT22;149;51.094;17.002;2023-08-08T08:55:45;20.50;53.20
324;DHT22;149;51.094;17.002;2023-08-08T08:58:14;20.60;52.10
324;DHT22;149;51.094;17.002;2023-08-08T09:00:44;21.30;51.60
324;DHT22;149;51.094;17.002;2023-08-08T09:03:13;22.30;51.10
324;DHT22;149;51.094;17.002;2023-08-08T09:05:41;22.10;49.40
324;DHT22;149;51.094;17.002;2023-08-08T09:08:11;21.60;49.60
324;DHT22;149;51.094;17.002;2023-08-08T09:10:42;21.80;48.30
324;DHT22;149;51.094;17.002;2023-08-08T09:13:09;22.40;48.30
324;DHT22;149;51.094;17.002;2023-08-08T09:15:36;22.70;46.10
324;DHT22;149;51.094;17.002;2023-08-08T09:18:04;22.90;45.80
324;DHT22;149;51.094;17.002;2023-08-08T09:20:31;23.00;47.70
324;DHT22;149;51.094;17.002;2023-08-08T09:22:58;22.70;46.00
324;DHT22;149;51.094;17.002;2023-08-08T09:25:26;23.10;45.50
324;DHT22;149;51.094;17.002;2023-08-08T09:27:53;23.40;46.50
324;DHT22;149;51.094;17.002;2023-08-08T09:30:23;23.70;45.00
324;DHT22;149;51.094;17.002;2023-08-08T09:32:50;23.40;45.60
324;DHT22;149;51.094;17.002;2023-08-08T09:35:17;23.00;47.20
324;DHT22;149;51.094;17.002;2023-08-08T09:37:46;22.90;47.00
324;DHT22;149;51.094;17.002;2023-08-08T09:40:13;23.00;46.90
324;DHT22;149;51.094;17.002;2023-08-08T09:42:40;23.20;46.30
324;DHT22;149;51.094;17.002;2023-08-08T09:45:09;23.10;47.80
324;DHT22;149;51.094;17.002;2023-08-08T09:47:37;23.10;46.70
324;DHT22;149;51.094;17.002;2023-08-08T09:50:06;23.10;46.90
324;DHT22;149;51.094;17.002;2023-08-08T09:52:34;23.30;46.20
324;DHT22;149;51.094;17.002;2023-08-08T09:55:02;23.00;46.00
324;DHT22;149;51.094;17.002;2023-08-08T09:57:30;22.50;47.00
324;DHT22;149;51.094;17.002;2023-08-08T09:59:58;22.30;47.30
324;DHT22;149;51.094;17.002;2023-08-08T10:02:25;22.30;49.20
324;DHT22;149;51.094;17.002;2023-08-08T10:04:53;22.00;48.70
324;DHT22;149;51.094;17.002;2023-08-08T10:07:22;22.10;50.20
324;DHT22;149;51.094;17.002;2023-08-08T10:09:49;22.00;48.50
324;DHT22;149;51.094;17.002;2023-08-08T10:12:16;21.70;49.50
324;DHT22;149;51.094;17.002;2023-08-08T10:14:45;21.40;49.60
324;DHT22;149;51.094;17.002;2023-08-08T10:17:17;21.40;50.60
324;DHT22;149;51.094;17.002;2023-08-08T10:19:56;21.10;50.90
324;DHT22;149;51.094;17.002;2023-08-08T10:22:24;21.00;51.60
324;DHT22;149;51.094;17.002;2023-08-08T10:24:52;21.00;50.60
324;DHT22;149;51.094;17.002;2023-08-08T10:27:36;21.10;50.60
324;DHT22;149;51.094;17.002;2023-08-08T10:30:06;21.40;50.10
324;DHT22;149;51.094;17.002;2023-08-08T10:32:44;21.50;50.20
324;DHT22;149;51.094;17.002;2023-08-08T10:35:14;21.90;50.70
324;DHT22;149;51.094;17.002;2023-08-08T10:37:52;21.60;51.20
324;DHT22;149;51.094;17.002;2023-08-08T10:40:19;21.60;51.50
324;DHT22;149;51.094;17.002;2023-08-08T10:42:47;21.30;51.90
324;DHT22;149;51.094;17.002;2023-08-08T10:45:15;21.50;51.00
324;DHT22;149;51.094;17.002;2023-08-08T10:47:44;21.50;50.10
324;DHT22;149;51.094;17.002;2023-08-08T10:50:16;21.60;50.90
324;DHT22;149;51.094;17.002;2023-08-08T10:55:24;21.60;49.90
324;DHT22;149;51.094;17.002;2023-08-08T10:57:59;21.50;51.40
324;DHT22;149;51.094;17.002;2023-08-08T11:00:29;21.50;49.90
324;DHT22;149;51.094;17.002;2023-08-08T11:02:57;21.10;51.90
324;DHT22;149;51.094;17.002;2023-08-08T11:05:27;21.20;51.20
324;DHT22;149;51.094;17.002;2023-08-08T11:07:55;21.10;52.30
324;DHT22;149;51.094;17.002;2023-08-08T11:10:22;20.90;51.80
324;DHT22;149;51.094;17.002;2023-08-08T11:13:00;20.80;51.70
324;DHT22;149;51.094;17.002;2023-08-08T11:15:27;21.00;54.90
324;DHT22;149;51.094;17.002;2023-08-08T11:17:56;20.90;53.20
324;DHT22;149;51.094;17.002;2023-08-08T11:20:23;20.70;55.90
324;DHT22;149;51.094;17.002;2023-08-08T11:22:55;20.80;53.90
324;DHT22;149;51.094;17.002;2023-08-08T11:25:28;21.20;53.70
324;DHT22;149;51.094;17.002;2023-08-08T11:27:57;21.20;55.50
324;DHT22;149;51.094;17.002;2023-08-08T11:30:28;21.20;54.40
324;DHT22;149;51.094;17.002;2023-08-08T11:32:56;21.00;54.80
324;DHT22;149;51.094;17.002;2023-08-08T11:35:26;20.70;54.40
324;DHT22;149;51.094;17.002;2023-08-08T11:37:56;20.60;54.30
324;DHT22;149;51.094;17.002;2023-08-08T11:40:25;21.00;55.80
324;DHT22;149;51.094;17.002;2023-08-08T11:42:54;21.10;54.30
324;DHT22;149;51.094;17.002;2023-08-08T11:45:23;21.20;53.70
324;DHT22;149;51.094;17.002;2023-08-08T11:47:52;21.00;53.80
324;DHT22;149;51.094;17.002;2023-08-08T11:50:21;21.10;54.60
324;DHT22;149;51.094;17.002;2023-08-08T11:52:53;21.50;56.20
324;DHT22;149;51.094;17.002;2023-08-08T11:55:21;21.80;52.30
324;DHT22;149;51.094;17.002;2023-08-08T11:57:55;22.00;52.90
324;DHT22;149;51.094;17.002;2023-08-08T12:00:29;21.90;52.80
324;DHT22;149;51.094;17.002;2023-08-08T12:03:01;22.10;52.10
324;DHT22;149;51.094;17.002;2023-08-08T12:05:28;22.20;52.40
324;DHT22;149;51.094;17.002;2023-08-08T12:07:58;22.10;52.00
324;DHT22;149;51.094;17.002;2023-08-08T12:10:25;22.10;52.30
324;DHT22;149;51.094;17.002;2023-08-08T12:12:57;22.00;53.60
324;DHT22;149;51.094;17.002;2023-08-08T12:15:32;21.60;53.30
324;DHT22;149;51.094;17.002;2023-08-08T12:18:03;21.30;54.20
324;DHT22;149;51.094;17.002;2023-08-08T12:20:31;21.50;55.50
324;DHT22;149;51.094;17.002;2023-08-08T12:22:59;21.90;53.40
324;DHT22;149;51.094;17.002;2023-08-08T12:25:26;22.20;51.60
324;DHT22;149;51.094;17.002;2023-08-08T12:27:54;22.10;53.10
324;DHT22;149;51.094;17.002;2023-08-08T12:30:21;22.00;53.10
324;DHT22;149;51.094;17.002;2023-08-08T12:32:49;22.00;52.60
324;DHT22;149;51.094;17.002;2023-08-08T12:35:16;22.10;53.70
324;DHT22;149;51.094;17.002;2023-08-08T12:37:43;22.50;51.70
324;DHT22;149;51.094;17.002;2023-08-08T12:40:11;22.30;51.40
324;DHT22;149;51.094;17.002;2023-08-08T12:42:38;22.30;51.90
324;DHT22;149;51.094;17.002;2023-08-08T12:45:06;22.60;53.00
324;DHT22;149;51.094;17.002;2023-08-08T12:47:37;22.60;51.70
324;DHT22;149;51.094;17.002;2023-08-08T12:50:05;22.70;52.60
324;DHT22;149;51.094;17.002;2023-08-08T12:52:32;22.40;50.90
324;DHT22;149;51.094;17.002;2023-08-08T12:55:00;22.40;49.90
324;DHT22;149;51.094;17.002;2023-08-08T12:57:27;22.40;50.80
324;DHT22;149;51.094;17.002;2023-08-08T12:59:54;22.50;49.80
324;DHT22;149;51.094;17.002;2023-08-08T13:02:21;22.30;50.30
324;DHT22;149;51.094;17.002;2023-08-08T13:04:48;22.30;50.70
324;DHT22;149;51.094;17.002;2023-08-08T13:07:16;22.20;50.50
324;DHT22;149;51.094;17.002;2023-08-08T13:09:43;21.90;50.30
324;DHT22;149;51.094;17.002;2023-08-08T13:12:10;21.80;52.70
324;DHT22;149;51.094;17.002;2023-08-08T13:14:37;21.80;51.50
324;DHT22;149;51.094;17.002;2023-08-08T13:17:04;21.90;51.90
324;DHT22;149;51.094;17.002;2023-08-08T13:19:34;22.00;51.90
324;DHT22;149;51.094;17.002;2023-08-08T13:22:01;21.80;51.90
324;DHT22;149;51.094;17.002;2023-08-08T13:24:29;21.70;52.50
324;DHT22;149;51.094;17.002;2023-08-08T13:26:56;22.00;51.00
324;DHT22;149;51.094;17.002;2023-08-08T13:29:23;21.90;52.60
324;DHT22;149;51.094;17.002;2023-08-08T13:31:51;21.60;52.50
324;DHT22;149;51.094;17.002;2023-08-08T13:34:18;21.40;53.20
324;DHT22;149;51.094;17.002;2023-08-08T13:36:45;21.20;54.30
324;DHT22;149;51.094;17.002;2023-08-08T13:39:13;21.10;54.50
324;DHT22;149;51.094;17.002;2023-08-08T13:41:45;21.10;54.20
324;DHT22;149;51.094;17.002;2023-08-08T13:44:12;21.20;54.10
324;DHT22;149;51.094;17.002;2023-08-08T13:46:44;21.20;55.00
324;DHT22;149;51.094;17.002;2023-08-08T13:49:17;21.30;54.20
324;DHT22;149;51.094;17.002;2023-08-08T13:51:44;21.10;54.10
324;DHT22;149;51.094;17.002;2023-08-08T13:54:22;21.00;54.50
324;DHT22;149;51.094;17.002;2023-08-08T13:56:53;21.30;54.40
324;DHT22;149;51.094;17.002;2023-08-08T13:59:19;21.70;53.30
324;DHT22;149;51.094;17.002;2023-08-08T14:01:47;21.90;52.10
324;DHT22;149;51.094;17.002;2023-08-08T14:04:14;22.00;51.00
324;DHT22;149;51.094;17.002;2023-08-08T14:06:41;22.00;51.80
324;DHT22;149;51.094;17.002;2023-08-08T14:09:10;21.90;51.00
324;DHT22;149;51.094;17.002;2023-08-08T14:11:39;21.90;51.20
324;DHT22;149;51.094;17.002;2023-08-08T14:14:07;21.80;51.00
324;DHT22;149;51.094;17.002;2023-08-08T14:16:33;22.10;51.20
324;DHT22;149;51.094;17.002;2023-08-08T14:19:00;22.20;50.80
324;DHT22;149;51.094;17.002;2023-08-08T14:21:28;22.30;49.70
324;DHT22;149;51.094;17.002;2023-08-08T14:23:55;22.40;50.80
324;DHT22;149;51.094;17.002;2023-08-08T14:26:22;22.10;50.60
324;DHT22;149;51.094;17.002;2023-08-08T14:28:49;21.80;51.30
324;DHT22;149;51.094;17.002;2023-08-08T14:31:16;21.90;51.90
324;DHT22;149;51.094;17.002;2023-08-08T14:33:43;21.80;52.90
324;DHT22;149;51.094;17.002;2023-08-08T14:36:10;21.80;51.20
324;DHT22;149;51.094;17.002;2023-08-08T14:38:37;21.80;50.10
324;DHT22;149;51.094;17.002;2023-08-08T14:41:04;21.90;50.40
324;DHT22;149;51.094;17.002;2023-08-08T14:43:31;21.90;50.30
324;DHT22;149;51.094;17.002;2023-08-08T14:45:58;21.80;50.80
324;DHT22;149;51.094;17.002;2023-08-08T14:48:26;21.60;50.00
324;DHT22;149;51.094;17.002;2023-08-08T14:50:54;21.40;51.00
324;DHT22;149;51.094;17.002;2023-08-08T14:53:21;21.40;51.80
324;DHT22;149;51.094;17.002;2023-08-08T14:55:48;21.30;51.70
324;DHT22;149;51.094;17.002;2023-08-08T14:58:15;21.50;52.40
324;DHT22;149;51.094;17.002;2023-08-08T15:00:42;21.30;53.10
324;DHT22;149;51.094;17.002;2023-08-08T15:03:09;21.30;52.70
324;DHT22;149;51.094;17.002;2023-08-08T15:05:38;21.30;51.70
324;DHT22;149;51.094;17.002;2023-08-08T15:08:05;21.40;52.30
324;DHT22;149;51.094;17.002;2023-08-08T15:10:33;21.40;52.40
324;DHT22;149;51.094;17.002;2023-08-08T15:13:02;21.20;52.00
324;DHT22;149;51.094;17.002;2023-08-08T15:15:29;21.10;53.30
324;DHT22;149;51.094;17.002;2023-08-08T15:17:56;21.00;52.60
324;DHT22;149;51.094;17.002;2023-08-08T15:20:23;21.00;52.70
324;DHT22;149;51.094;17.002;2023-08-08T15:22:50;21.00;52.50
324;DHT22;149;51.094;17.002;2023-08-08T15:25:19;21.00;53.00
324;DHT22;149;51.094;17.002;2023-08-08T15:27:46;21.00;53.50
324;DHT22;149;51.094;17.002;2023-08-08T15:30:13;21.00;52.50
324;DHT22;149;51.094;17.002;2023-08-08T15:32:40;21.10;53.20
324;DHT22;149;51.094;17.002;2023-08-08T15:35:07;21.20;54.00
324;DHT22;149;51.094;17.002;2023-08-08T15:37:34;21.20;53.80
324;DHT22;149;51.094;17.002;2023-08-08T15:40:01;21.10;53.80
324;DHT22;149;51.094;17.002;2023-08-08T15:42:28;21.10;53.70
324;DHT22;149;51.094;17.002;2023-08-08T15:44:55;21.20;53.50
324;DHT22;149;51.094;17.002;2023-08-08T15:47:23;21.40;52.80
324;DHT22;149;51.094;17.002;2023-08-08T15:49:50;21.50;52.40
324;DHT22;149;51.094;17.002;2023-08-08T15:52:17;21.50;52.40
324;DHT22;149;51.094;17.002;2023-08-08T15:54:44;21.60;54.30
324;DHT22;149;51.094;17.002;2023-08-08T15:57:11;21.90;51.80
324;DHT22;149;51.094;17.002;2023-08-08T15:59:38;21.70;53.70
324;DHT22;149;51.094;17.002;2023-08-08T16:02:09;21.00;53.40
324;DHT22;149;51.094;17.002;2023-08-08T16:04:37;21.10;53.70
324;DHT22;149;51.094;17.002;2023-08-08T16:07:04;21.00;54.20
324;DHT22;149;51.094;17.002;2023-08-08T16:09:31;21.00;53.80
324;DHT22;149;51.094;17.002;2023-08-08T16:11:58;21.20;53.30
324;DHT22;149;51.094;17.002;2023-08-08T16:14:26;21.00;54.10
324;DHT22;149;51.094;17.002;2023-08-08T16:16:53;20.90;54.20
324;DHT22;149;51.094;17.002;2023-08-08T16:19:20;20.80;56.00
324;DHT22;149;51.094;17.002;2023-08-08T16:21:48;20.90;54.80
324;DHT22;149;51.094;17.002;2023-08-08T16:24:15;20.70;54.60